Time;durP1;ratioP1;P1;durP2;ratioP2;P2;SDS_P1;SDS_P2;PMS_P1;PMS_P2;Temp;Humidity;BMP_temperature;BMP_pressure;BME280_temperature;BME280_humidity;BME280_pressure;Samples;Min_cycle;Max_cycle;Signal;HPM_P1;HPM_P2
2021/01/12 00:00:23;;;;;;;26.08;15.05;;;4.80;99.90;;;;;;6154916;23;20372;-82
2021/01/12 00:02:51;;;;;;;22.15;14.35;;;4.80;99.90;;;;;;6154885;23;20010;-82
2021/01/12 00:05:18;;;;;;;23.10;15.48;;;4.90;99.90;;;;;;6155130;23;20095;-81
2021/01/12 00:07:44;;;;;;;22.95;14.85;;;5.00;99.90;;;;;;6153329;23;20001;-81
2021/01/12 00:10:23;;;;;;;25.75;15.43;;;4.90;99.90;;;;;;6153666;23;20060;-81
2021/01/12 00:12:51;;;;;;;26.10;15.00;;;5.00;99.90;;;;;;6153192;23;20064;-80
2021/01/12 00:15:16;;;;;;;22.77;14.65;;;4.90;99.90;;;;;;6154746;23;20022;-81
2021/01/12 00:17:42;;;;;;;48.95;26.10;;;4.90;99.90;;;;;;6154279;23;20064;-82
2021/01/12 00:20:10;;;;;;;41.90;20.45;;;5.70;99.90;;;;;;6154280;23;20473;-81
2021/01/12 00:22:36;;;;;;;100.45;51.38;;;5.80;99.90;;;;;;6152063;23;20001;-82
2021/01/12 00:25:03;;;;;;;38.65;23.90;;;5.60;99.90;;;;;;6152369;23;20056;-80
2021/01/12 00:27:28;;;;;;;27.83;16.25;;;5.30;99.90;;;;;;6151506;23;20006;-80
2021/01/12 00:29:54;;;;;;;21.25;14.35;;;5.20;99.90;;;;;;6153952;23;20328;-80
2021/01/12 00:32:22;;;;;;;24.08;14.00;;;5.10;99.90;;;;;;6153399;23;20431;-82
2021/01/12 00:34:48;;;;;;;21.83;14.30;;;5.00;99.90;;;;;;6153961;23;20009;-81
2021/01/12 00:37:19;;;;;;;23.42;15.05;;;5.00;99.90;;;;;;6153899;23;19997;-82
2021/01/12 00:39:44;;;;;;;20.67;14.15;;;5.00;99.90;;;;;;6153615;23;20344;-81
2021/01/12 00:42:10;;;;;;;24.85;13.45;;;5.00;99.90;;;;;;6154533;23;19997;-81
2021/01/12 00:44:36;;;;;;;25.90;15.07;;;4.80;99.90;;;;;;6152947;23;20475;-81
2021/01/12 00:47:02;;;;;;;26.25;14.73;;;4.80;99.90;;;;;;6152487;23;20060;-81
2021/01/12 00:49:28;;;;;;;20.60;14.48;;;4.80;99.90;;;;;;6152596;23;20009;-80
2021/01/12 00:51:54;;;;;;;22.25;13.40;;;4.80;99.90;;;;;;6152580;23;20006;-81
2021/01/12 00:54:24;;;;;;;21.17;13.50;;;4.70;99.90;;;;;;6152549;23;20025;-80
2021/01/12 00:56:54;;;;;;;23.02;12.80;;;4.40;99.90;;;;;;6152513;23;20002;-80
2021/01/12 00:59:20;;;;;;;19.80;12.55;;;4.40;99.90;;;;;;6152196;23;20006;-80
2021/01/12 01:01:47;;;;;;;19.17;12.52;;;4.30;99.90;;;;;;6154503;23;20373;-81
2021/01/12 01:04:14;;;;;;;23.08;12.15;;;4.20;99.90;;;;;;6154354;23;20376;-81
2021/01/12 01:06:41;;;;;;;19.50;11.88;;;4.30;99.90;;;;;;6154257;23;19994;-82
2021/01/12 01:09:08;;;;;;;18.55;12.23;;;4.40;99.90;;;;;;6152433;23;20024;-82
2021/01/12 01:11:45;;;;;;;18.05;11.93;;;4.30;99.90;;;;;;6153057;23;20005;-81
2021/01/12 01:14:12;;;;;;;19.05;12.90;;;4.40;99.90;;;;;;6153061;23;20081;-82
2021/01/12 01:16:38;;;;;;;17.85;12.38;;;4.50;99.90;;;;;;6154963;23;19997;-81
2021/01/12 01:19:05;;;;;;;15.90;10.60;;;4.60;99.90;;;;;;6152578;23;20013;-82
2021/01/12 01:21:31;;;;;;;16.45;11.45;;;4.60;99.90;;;;;;6153079;23;20032;-80
2021/01/12 01:23:57;;;;;;;22.08;11.52;;;4.60;99.90;;;;;;6154576;23;20324;-81
2021/01/12 01:26:22;;;;;;;18.95;11.95;;;4.50;99.90;;;;;;6153107;23;20085;-81
2021/01/12 01:28:48;;;;;;;17.42;11.85;;;4.60;99.90;;;;;;6154160;23;20064;-82
2021/01/12 01:31:14;;;;;;;18.10;11.82;;;4.60;99.90;;;;;;6153272;23;20375;-82
2021/01/12 01:33:41;;;;;;;18.77;11.43;;;4.60;99.90;;;;;;6151337;23;20006;-81
2021/01/12 01:36:10;;;;;;;19.70;12.38;;;4.60;99.90;;;;;;6154182;23;20016;-81
2021/01/12 01:38:37;;;;;;;17.27;11.35;;;4.60;99.90;;;;;;6154239;23;19994;-81
2021/01/12 01:41:05;;;;;;;16.85;11.20;;;4.60;99.90;;;;;;6154385;23;19998;-83
2021/01/12 01:43:31;;;;;;;15.57;10.77;;;4.60;99.90;;;;;;6154108;23;20064;-82
2021/01/12 01:45:58;;;;;;;18.60;11.77;;;4.70;99.90;;;;;;6154485;23;20002;-81
2021/01/12 01:48:23;;;;;;;15.93;11.50;;;4.70;99.90;;;;;;6154333;23;20368;-79
2021/01/12 01:50:49;;;;;;;17.65;11.57;;;4.70;99.90;;;;;;6152680;23;20446;-80
2021/01/12 01:53:16;;;;;;;16.73;11.57;;;4.70;99.90;;;;;;6152970;23;20014;-80
2021/01/12 01:55:43;;;;;;;20.45;11.88;;;4.60;99.90;;;;;;6154719;23;20016;-79
2021/01/12 01:58:09;;;;;;;19.95;13.02;;;4.50;99.90;;;;;;6154442;23;20025;-79
2021/01/12 02:00:36;;;;;;;19.30;11.95;;;4.60;99.90;;;;;;6152185;23;20001;-80
2021/01/12 02:03:16;;;;;;;19.13;11.80;;;4.50;99.90;;;;;;6154282;23;20001;-82
2021/01/12 02:05:51;;;;;;;22.88;12.55;;;4.40;99.90;;;;;;6153894;23;20411;-79
2021/01/12 02:08:31;;;;;;;24.10;12.40;;;4.40;99.90;;;;;;6152619;23;20001;-80
2021/01/12 02:11:00;;;;;;;23.35;12.93;;;4.40;99.90;;;;;;6153414;23;20093;-80
2021/01/12 02:13:28;;;;;;;22.20;12.07;;;4.40;99.90;;;;;;6152710;23;20037;-78
2021/01/12 02:15:57;;;;;;;18.70;11.68;;;4.40;99.90;;;;;;6151916;23;20009;-80
2021/01/12 02:18:24;;;;;;;19.77;11.57;;;4.40;99.90;;;;;;6152657;23;20005;-80
2021/01/12 02:20:50;;;;;;;18.40;11.10;;;4.40;99.90;;;;;;6153593;23;20020;-80
2021/01/12 02:23:28;;;;;;;16.10;10.63;;;4.40;99.90;;;;;;6154266;23;20001;-80
2021/01/12 02:25:55;;;;;;;18.63;10.82;;;4.40;99.90;;;;;;6153872;23;20029;-82
2021/01/12 02:28:20;;;;;;;16.63;10.65;;;4.30;99.90;;;;;;6153895;23;20005;-81
2021/01/12 02:30:46;;;;;;;19.38;10.68;;;4.30;99.90;;;;;;6153899;23;19998;-82
2021/01/12 02:33:12;;;;;;;16.10;10.57;;;4.20;99.90;;;;;;6154559;23;20009;-81
2021/01/12 02:35:40;;;;;;;18.40;11.13;;;3.90;99.90;;;;;;6152107;23;20335;-81
2021/01/12 02:38:06;;;;;;;17.98;11.50;;;4.10;99.90;;;;;;6153884;23;19997;-82
2021/01/12 02:40:33;;;;;;;20.90;11.95;;;4.40;99.90;;;;;;6154242;23;20055;-82
2021/01/12 02:42:59;;;;;;;17.67;11.10;;;4.50;99.90;;;;;;6152599;23;20006;-80
2021/01/12 02:45:26;;;;;;;15.60;10.75;;;4.60;99.90;;;;;;6154230;23;20340;-80
2021/01/12 02:47:51;;;;;;;15.55;11.07;;;4.60;99.90;;;;;;6154073;23;20005;-80
2021/01/12 02:50:17;;;;;;;15.20;10.52;;;4.70;99.90;;;;;;6153914;23;20323;-79
2021/01/12 02:52:43;;;;;;;19.45;10.95;;;4.70;99.90;;;;;;6152734;23;20009;-80
2021/01/12 02:55:10;;;;;;;16.20;11.40;;;4.70;99.90;;;;;;6153559;23;20021;-83
2021/01/12 02:57:36;;;;;;;19.45;11.10;;;4.60;99.90;;;;;;6152574;23;20033;-81
2021/01/12 03:00:13;;;;;;;16.00;10.35;;;4.60;99.90;;;;;;6153589;23;20006;-81
2021/01/12 03:02:39;;;;;;;16.15;10.77;;;4.60;99.90;;;;;;6153824;23;20005;-83
2021/01/12 03:05:07;;;;;;;18.67;10.73;;;4.50;99.90;;;;;;6152324;23;20001;-79
2021/01/12 03:07:33;;;;;;;18.85;10.73;;;4.40;99.90;;;;;;6153939;23;20084;-80
2021/01/12 03:09:59;;;;;;;17.25;11.80;;;4.30;99.90;;;;;;6153555;23;20036;-80
2021/01/12 03:12:25;;;;;;;20.33;11.38;;;4.30;99.90;;;;;;6153555;23;20002;-80
2021/01/12 03:14:51;;;;;;;16.40;11.18;;;4.40;99.90;;;;;;6153907;23;20037;-79
2021/01/12 03:17:18;;;;;;;21.80;11.00;;;4.50;99.90;;;;;;6153460;23;20056;-81
2021/01/12 03:19:44;;;;;;;15.23;10.25;;;4.30;99.90;;;;;;6153796;23;20041;-80
2021/01/12 03:22:10;;;;;;;14.07;9.82;;;4.30;99.90;;;;;;6152625;23;20005;-80
2021/01/12 03:24:37;;;;;;;20.50;10.77;;;4.30;99.90;;;;;;6154190;23;20010;-81
2021/01/12 03:27:04;;;;;;;17.95;10.68;;;4.40;99.90;;;;;;6155653;23;20004;-82
2021/01/12 03:29:30;;;;;;;13.95;9.00;;;4.40;99.90;;;;;;6153837;23;19998;-80
2021/01/12 03:31:56;;;;;;;14.05;10.07;;;4.40;99.90;;;;;;6153686;23;20001;-81
2021/01/12 03:34:22;;;;;;;14.40;10.05;;;4.20;99.90;;;;;;6153540;23;20005;-81
2021/01/12 03:36:48;;;;;;;14.93;9.85;;;4.20;99.90;;;;;;6153497;23;20076;-80
2021/01/12 03:39:14;;;;;;;14.82;10.38;;;4.30;99.90;;;;;;6155667;23;20293;-81
2021/01/12 03:41:40;;;;;;;15.48;10.00;;;4.30;99.90;;;;;;6153813;23;20495;-81
2021/01/12 03:44:05;;;;;;;15.50;10.05;;;4.40;99.90;;;;;;6155556;23;20519;-81
2021/01/12 03:46:31;;;;;;;15.27;10.13;;;4.40;99.90;;;;;;6153825;23;20033;-80
2021/01/12 03:48:57;;;;;;;14.20;9.95;;;4.10;99.90;;;;;;6153809;23;20016;-80
2021/01/12 03:51:25;;;;;;;18.02;10.65;;;3.90;99.90;;;;;;6153713;23;20458;-80
2021/01/12 03:53:52;;;;;;;16.17;10.10;;;3.90;99.90;;;;;;6155162;23;20096;-80
2021/01/12 03:56:18;;;;;;;15.52;10.30;;;4.20;99.90;;;;;;6153963;23;20648;-80
2021/01/12 03:58:44;;;;;;;16.63;10.35;;;4.30;99.90;;;;;;6153622;23;20030;-81
2021/01/12 04:01:12;;;;;;;20.13;11.57;;;4.40;99.90;;;;;;6153630;23;20012;-81
2021/01/12 04:03:42;;;;;;;15.07;9.95;;;4.40;99.90;;;;;;6153654;23;20009;-82
2021/01/12 04:06:14;;;;;;;16.13;10.27;;;4.40;99.90;;;;;;6153888;23;20085;-81
2021/01/12 04:08:47;;;;;;;14.05;10.23;;;4.40;99.90;;;;;;6154075;23;20413;-79
2021/01/12 04:11:14;;;;;;;15.18;10.15;;;4.30;99.90;;;;;;6153644;23;20006;-80
2021/01/12 04:13:40;;;;;;;20.10;10.82;;;4.40;99.90;;;;;;6154549;23;20064;-79
2021/01/12 04:16:07;;;;;;;18.17;11.02;;;4.30;99.90;;;;;;6155271;23;20005;-80
2021/01/12 04:18:34;;;;;;;17.83;10.55;;;4.30;99.90;;;;;;6153670;23;20014;-82
2021/01/12 04:21:00;;;;;;;16.75;11.27;;;4.40;99.90;;;;;;6154091;23;20088;-80
2021/01/12 04:23:25;;;;;;;13.75;10.13;;;4.40;99.90;;;;;;6155009;23;20009;-80
2021/01/12 04:25:51;;;;;;;15.85;9.85;;;4.40;99.90;;;;;;6153448;23;20006;-81
2021/01/12 04:28:17;;;;;;;15.55;10.02;;;4.30;99.90;;;;;;6152953;23;20009;-80
2021/01/12 04:30:43;;;;;;;13.65;10.05;;;4.10;99.90;;;;;;6154042;23;20351;-79
2021/01/12 04:33:09;;;;;;;17.60;10.10;;;4.00;99.90;;;;;;6153784;23;20009;-80
2021/01/12 04:35:35;;;;;;;19.67;9.77;;;4.10;99.90;;;;;;6153344;23;20017;-80
2021/01/12 04:38:01;;;;;;;15.63;10.02;;;4.30;99.90;;;;;;6153161;23;20384;-81
2021/01/12 04:40:27;;;;;;;15.45;9.77;;;4.40;99.90;;;;;;6154319;23;20447;-79
2021/01/12 04:42:56;;;;;;;12.82;8.93;;;4.50;99.90;;;;;;6154822;23;20001;-80
2021/01/12 04:45:21;;;;;;;13.65;7.95;;;4.50;99.90;;;;;;6153242;23;20113;-80
2021/01/12 04:47:47;;;;;;;9.65;7.20;;;3.80;99.90;;;;;;6154548;23;20025;-79
2021/01/12 04:50:13;;;;;;;11.10;7.47;;;3.70;99.90;;;;;;6155070;23;20001;-80
2021/01/12 04:52:57;;;;;;;9.45;7.00;;;3.90;99.90;;;;;;6154581;23;20073;-80
2021/01/12 04:55:22;;;;;;;11.60;7.43;;;3.80;99.90;;;;;;6153305;23;20452;-80
2021/01/12 04:57:50;;;;;;;8.60;6.75;;;4.00;99.90;;;;;;6153007;23;20040;-83
2021/01/12 05:00:23;;;;;;;12.00;7.88;;;3.70;99.90;;;;;;6154869;23;20002;-81
2021/01/12 05:03:02;;;;;;;11.02;7.85;;;3.60;99.90;;;;;;6154667;23;20009;-81
2021/01/12 05:05:32;;;;;;;12.23;7.30;;;3.40;99.90;;;;;;6154982;23;20028;-81
2021/01/12 05:08:06;;;;;;;9.20;6.65;;;3.30;99.90;;;;;;6154595;23;19997;-81
2021/01/12 05:10:37;;;;;;;10.85;6.90;;;3.20;99.90;;;;;;6154157;23;20017;-81
2021/01/12 05:13:06;;;;;;;;;;;3.30;99.90;;;;;;6153178;23;20004;-82
2021/01/12 05:15:32;;;;;;;11.30;7.15;;;3.40;99.90;;;;;;6153308;23;20279;-83
2021/01/12 05:18:01;;;;;;;9.88;6.55;;;3.40;99.90;;;;;;6152438;23;20324;-80
2021/01/12 05:20:27;;;;;;;12.73;6.93;;;3.50;99.90;;;;;;6154443;23;20025;-82
2021/01/12 05:23:07;;;;;;;10.02;7.22;;;3.40;99.90;;;;;;6154583;23;20002;-80
2021/01/12 05:25:36;;;;;;;10.40;6.90;;;3.50;99.90;;;;;;6153474;23;20041;-80
2021/01/12 05:28:04;;;;;;;8.98;7.00;;;3.50;99.90;;;;;;6152710;23;20006;-81
2021/01/12 05:30:30;;;;;;;9.43;7.55;;;3.50;99.90;;;;;;6152741;23;20093;-84
2021/01/12 05:32:57;;;;;;;9.55;7.00;;;3.50;99.90;;;;;;6152659;23;20037;-80
2021/01/12 05:35:26;;;;;;;9.48;7.28;;;3.70;99.90;;;;;;6154607;23;20017;-83
2021/01/12 05:38:00;;;;;;;9.27;6.35;;;3.60;99.90;;;;;;6152529;23;20033;-81
2021/01/12 05:40:35;;;;;;;9.30;7.30;;;3.60;99.90;;;;;;6152991;23;20017;-82
2021/01/12 05:43:14;;;;;;;10.57;6.82;;;3.80;99.90;;;;;;6152631;23;20005;-80
2021/01/12 05:45:42;;;;;;;11.45;7.22;;;3.90;99.90;;;;;;6154192;23;19994;-80
2021/01/12 05:48:10;;;;;;;8.48;6.57;;;3.90;99.90;;;;;;6152927;23;20049;-81
2021/01/12 05:50:36;;;;;;;11.02;7.28;;;3.90;99.90;;;;;;6152668;23;20313;-80
2021/01/12 05:53:03;;;;;;;10.20;7.05;;;4.00;99.90;;;;;;6153727;23;20008;-82
2021/01/12 05:55:36;;;;;;;11.13;7.90;;;4.10;99.90;;;;;;6153013;23;20025;-81
2021/01/12 05:58:15;;;;;;;14.85;9.05;;;4.20;99.90;;;;;;6153955;23;19994;-81
2021/01/12 06:00:43;;;;;;;12.15;8.05;;;4.30;99.90;;;;;;6154260;23;20017;-83
2021/01/12 06:03:15;;;;;;;15.45;9.63;;;4.20;99.90;;;;;;6153890;23;20004;-81
2021/01/12 06:05:44;;;;;;;13.25;7.78;;;4.30;99.90;;;;;;6154152;23;20013;-83
2021/01/12 06:08:14;;;;;;;11.98;7.80;;;4.30;99.90;;;;;;6152561;23;20312;-82
2021/01/12 06:10:43;;;;;;;8.38;6.72;;;4.00;99.90;;;;;;6152508;23;20092;-82
2021/01/12 06:13:18;;;;;;;8.65;5.18;;;3.80;99.90;;;;;;6154675;23;19997;-81
2021/01/12 06:15:47;;;;;;;6.68;4.82;;;3.60;99.90;;;;;;6154328;23;20064;-82
2021/01/12 06:18:18;;;;;;;8.10;5.65;;;3.60;99.90;;;;;;6152655;23;20002;-82
2021/01/12 06:20:44;;;;;;;;;;;3.60;99.90;;;;;;6154987;23;20332;-81
2021/01/12 06:23:21;;;;;;;6.15;4.88;;;3.90;99.90;;;;;;6154081;23;20231;-82
2021/01/12 06:25:48;;;;;;;6.57;5.10;;;3.90;99.90;;;;;;6154192;23;20331;-81
2021/01/12 06:28:14;;;;;;;7.28;5.40;;;4.00;99.90;;;;;;6152899;23;20001;-83
2021/01/12 06:30:41;;;;;;;7.20;5.50;;;3.90;99.90;;;;;;6151741;23;20005;-83
2021/01/12 06:33:10;;;;;;;8.20;5.40;;;4.00;99.90;;;;;;6153727;23;20077;-80
2021/01/12 06:35:40;;;;;;;6.82;5.30;;;4.00;99.90;;;;;;6153694;23;20014;-80
2021/01/12 06:38:07;;;;;;;7.22;5.65;;;4.00;99.90;;;;;;6154216;23;20069;-82
2021/01/12 06:40:35;;;;;;;7.18;4.88;;;4.30;99.90;;;;;;6153975;23;20009;-82
2021/01/12 06:43:01;;;;;;;5.90;4.60;;;4.40;99.90;;;;;;6153780;23;20006;-81
2021/01/12 06:45:28;;;;;;;6.55;5.07;;;4.00;99.90;;;;;;6152192;23;20009;-82
2021/01/12 06:47:54;;;;;;;8.23;5.03;;;4.10;99.90;;;;;;6150310;23;20005;-80
2021/01/12 06:50:23;;;;;;;7.53;5.00;;;4.10;99.90;;;;;;6153541;23;19997;-83
2021/01/12 06:52:50;;;;;;;8.02;6.00;;;4.30;99.90;;;;;;6152093;23;20010;-80
2021/01/12 06:55:18;;;;;;;9.32;6.38;;;4.40;99.90;;;;;;6153768;23;20068;-82
2021/01/12 06:57:51;;;;;;;9.48;6.60;;;4.30;99.90;;;;;;6155285;23;20077;-80
2021/01/12 07:00:20;;;;;;;8.85;6.30;;;4.50;99.90;;;;;;6154350;23;20037;-81
2021/01/12 07:02:57;;;;;;;9.23;6.27;;;4.10;99.90;;;;;;6153888;23;20005;-81
2021/01/12 07:05:24;;;;;;;9.50;6.97;;;3.90;99.90;;;;;;6155387;23;20494;-80
2021/01/12 07:07:51;;;;;;;11.20;7.68;;;4.20;99.90;;;;;;6153492;23;20382;-81
2021/01/12 07:10:22;;;;;;;10.73;7.97;;;4.40;99.90;;;;;;6155443;23;20005;-79
2021/01/12 07:12:48;;;;;;;;;;;4.40;99.90;;;;;;6154573;23;20008;-80
2021/01/12 07:15:19;;;;;;;11.52;8.02;;;4.30;99.90;;;;;;6155208;23;19948;-82
2021/01/12 07:17:54;;;;;;;;;;;4.10;99.90;;;;;;6154788;23;20009;-82
2021/01/12 07:20:21;;;;;;;15.63;10.10;;;4.10;99.90;;;;;;6155021;23;19919;-81
2021/01/12 07:22:53;;;;;;;15.52;9.88;;;4.30;99.90;;;;;;6155845;23;20009;-81
2021/01/12 07:25:22;;;;;;;13.23;9.20;;;4.50;99.90;;;;;;6153970;23;20088;-81
2021/01/12 07:27:59;;;;;;;18.15;9.93;;;4.70;99.90;;;;;;6153654;23;20005;-82
2021/01/12 07:30:26;;;;;;;19.88;10.68;;;4.80;99.90;;;;;;6154273;23;20005;-80
2021/01/12 07:33:15;;;;;;;17.05;10.52;;;4.80;99.90;;;;;;6155791;23;19994;-81
2021/01/12 07:35:43;;;;;;;15.25;10.55;;;4.80;99.90;;;;;;6148819;23;20063;-82
2021/01/12 07:38:09;;;;;;;17.45;10.95;;;4.90;99.90;;;;;;6155647;23;20011;-80
2021/01/12 07:40:34;;;;;;;18.70;11.07;;;4.90;99.90;;;;;;6153555;23;20403;-81
2021/01/12 07:43:02;;;;;;;15.63;10.70;;;5.10;99.90;;;;;;6153742;23;20009;-82
2021/01/12 07:45:33;;;;;;;16.80;11.23;;;5.10;99.90;;;;;;6153783;23;20141;-80
2021/01/12 07:48:01;;;;;;;14.95;10.25;;;5.20;99.90;;;;;;6153787;23;20005;-82
2021/01/12 07:50:29;;;;;;;16.77;10.65;;;5.10;99.90;;;;;;6139398;23;20025;-82
2021/01/12 07:52:56;;;;;;;16.35;10.88;;;5.20;99.90;;;;;;6154914;23;20044;-82
2021/01/12 07:55:22;;;;;;;13.90;9.75;;;5.20;99.90;;;;;;6128920;23;20014;-82
2021/01/12 07:57:49;;;;;;;13.95;8.52;;;5.30;99.90;;;;;;6129040;23;20002;-83
2021/01/12 08:00:17;;;;;;;11.75;8.52;;;5.30;99.90;;;;;;6129193;23;20009;-83
2021/01/12 08:02:45;;;;;;;13.82;10.00;;;5.40;99.90;;;;;;6155264;23;20379;-84
2021/01/12 08:05:13;;;;;;;15.63;9.43;;;5.40;99.90;;;;;;6129152;23;20014;-82
2021/01/12 08:07:39;;;;;;;14.15;9.27;;;5.30;99.90;;;;;;6128722;23;20001;-83
2021/01/12 08:10:06;;;;;;;14.90;9.77;;;5.30;99.90;;;;;;6128773;23;20092;-80
2021/01/12 08:12:32;;;;;;;10.90;8.73;;;5.30;99.90;;;;;;6155435;23;20276;-81
2021/01/12 08:15:09;;;;;;;14.35;9.23;;;5.40;99.90;;;;;;6154933;23;20336;-82
2021/01/12 08:17:35;;;;;;;17.27;8.93;;;5.40;99.90;;;;;;6155115;23;20080;-81
2021/01/12 08:20:05;;;;;;;13.10;8.88;;;5.30;99.90;;;;;;6128900;23;20045;-82
2021/01/12 08:22:31;;;;;;;11.50;8.95;;;5.40;99.90;;;;;;6129076;23;20037;-82
2021/01/12 08:25:05;;;;;;;15.77;9.50;;;5.40;99.90;;;;;;6128163;23;20001;-83
2021/01/12 08:27:32;;;;;;;12.70;9.20;;;5.40;99.90;;;;;;6154488;23;20002;-82
2021/01/12 08:30:09;;;;;;;14.50;9.00;;;5.30;99.90;;;;;;6155008;23;20029;-82
2021/01/12 08:32:43;;;;;;;15.82;10.07;;;5.30;99.90;;;;;;6128728;23;20636;-81
2021/01/12 08:35:12;;;;;;;14.82;10.20;;;5.40;99.90;;;;;;6154846;23;20136;-81
2021/01/12 08:37:40;;;;;;;13.07;9.73;;;5.30;99.90;;;;;;6154904;23;19998;-80
2021/01/12 08:40:08;;;;;;;15.73;10.02;;;5.40;99.90;;;;;;6128604;23;20012;-82
2021/01/12 08:42:38;;;;;;;14.35;9.85;;;5.30;99.90;;;;;;6153926;23;19998;-82
2021/01/12 08:45:15;;;;;;;17.17;9.43;;;5.40;99.90;;;;;;6154945;23;20001;-83
2021/01/12 08:47:42;;;;;;;15.55;9.68;;;5.40;99.90;;;;;;6153990;23;20012;-81
2021/01/12 08:50:09;;;;;;;18.80;9.98;;;5.40;99.90;;;;;;6128490;23;20067;-80
2021/01/12 08:52:38;;;;;;;43.03;25.02;;;5.50;99.90;;;;;;6154615;23;19994;-81
2021/01/12 08:55:15;;;;;;;32.97;19.00;;;5.60;99.90;;;;;;6154753;23;20040;-82
2021/01/12 08:57:40;;;;;;;37.75;21.13;;;5.90;99.90;;;;;;6128410;23;20077;-79
2021/01/12 09:00:12;;;;;;;14.20;10.68;;;6.00;99.90;;;;;;6128094;23;20427;-80
2021/01/12 09:02:38;;;;;;;13.98;9.70;;;5.30;99.90;;;;;;6154054;23;20301;-80
2021/01/12 09:05:04;;;;;;;14.40;10.07;;;5.20;99.90;;;;;;6152927;23;20014;-81
2021/01/12 09:07:32;;;;;;;16.98;11.02;;;5.30;99.90;;;;;;6128612;23;19997;-79
2021/01/12 09:09:58;;;;;;;15.50;10.98;;;5.40;99.90;;;;;;6128657;23;20013;-82
2021/01/12 09:12:24;;;;;;;19.80;11.13;;;5.60;99.90;;;;;;6154089;23;20012;-82
2021/01/12 09:14:51;;;;;;;19.63;12.65;;;5.20;99.90;;;;;;6154131;23;20041;-85
2021/01/12 09:17:22;;;;;;;19.42;12.80;;;5.10;99.90;;;;;;6154230;23;20405;-83
2021/01/12 09:19:50;;;;;;;16.00;11.30;;;5.40;99.90;;;;;;6104300;23;20440;-82
2021/01/12 09:22:17;;;;;;;21.40;12.32;;;5.50;99.90;;;;;;6154917;23;20001;-83
2021/01/12 09:24:48;;;;;;;28.48;15.77;;;5.60;99.90;;;;;;6154179;23;20014;-78
2021/01/12 09:27:20;;;;;;;41.90;22.83;;;5.80;99.90;;;;;;6154375;23;20056;-82
2021/01/12 09:29:46;;;;;;;78.72;41.47;;;6.00;99.90;;;;;;6154654;23;20033;-80
2021/01/12 09:32:23;;;;;;;71.47;39.08;;;6.30;99.90;;;;;;6128102;23;20006;-80
2021/01/12 09:34:49;;;;;;;52.42;29.73;;;6.30;99.90;;;;;;6128227;23;20064;-83
2021/01/12 09:37:16;;;;;;;20.73;14.15;;;6.30;99.90;;;;;;6128124;23;20002;-85
2021/01/12 09:39:58;;;;;;;18.08;11.02;;;6.10;99.90;;;;;;6154873;23;20022;-79
2021/01/12 09:42:26;;;;;;;16.02;11.05;;;6.00;99.90;;;;;;6127035;23;20002;-80
2021/01/12 09:44:53;;;;;;;13.73;9.38;;;6.00;99.90;;;;;;6154348;23;20013;-82
2021/01/12 09:47:19;;;;;;;16.70;10.10;;;6.00;99.90;;;;;;6127418;23;20029;-80
2021/01/12 09:49:45;;;;;;;16.48;11.48;;;5.90;99.90;;;;;;6127971;23;20416;-82
2021/01/12 09:52:12;;;;;;;16.13;10.40;;;5.60;99.90;;;;;;6127515;23;20423;-80
2021/01/12 09:54:46;;;;;;;16.25;10.35;;;5.40;99.90;;;;;;6154085;23;20010;-80
2021/01/12 09:57:13;;;;;;;14.75;9.40;;;5.70;99.90;;;;;;6127257;23;20033;-80
2021/01/12 09:59:39;;;;;;;16.00;11.18;;;5.70;99.90;;;;;;6153761;23;20002;-79
2021/01/12 10:02:05;;;;;;;13.43;8.77;;;6.30;99.90;;;;;;6153464;23;20397;-78
2021/01/12 10:04:31;;;;;;;14.57;9.02;;;6.80;99.90;;;;;;6153947;23;20531;-78
2021/01/12 10:06:58;;;;;;;14.70;9.40;;;7.50;99.90;;;;;;6154039;23;20025;-81
2021/01/12 10:09:24;;;;;;;11.30;7.78;;;7.70;99.90;;;;;;6154223;23;20084;-78
2021/01/12 10:11:50;;;;;;;10.05;7.20;;;7.40;99.90;;;;;;6127719;23;20009;-78
2021/01/12 10:14:17;;;;;;;11.93;8.25;;;7.70;99.90;;;;;;6153919;23;20020;-83
2021/01/12 10:16:43;;;;;;;9.65;7.45;;;8.30;99.90;;;;;;6153647;23;20338;-81
2021/01/12 10:19:09;;;;;;;15.10;9.02;;;7.70;99.90;;;;;;6154325;23;20447;-80
2021/01/12 10:21:34;;;;;;;100.60;53.88;;;6.50;99.90;;;;;;6151941;23;19997;-80
2021/01/12 10:24:01;;;;;;;84.28;46.00;;;6.80;99.90;;;;;;6154125;23;20029;-80
2021/01/12 10:26:27;;;;;;;12.18;8.70;;;7.50;99.90;;;;;;6153968;23;20073;-80
2021/01/12 10:28:53;;;;;;;9.80;7.03;;;6.60;99.90;;;;;;6153448;23;20345;-81
2021/01/12 10:31:20;;;;;;;8.80;6.18;;;6.50;99.90;;;;;;6127004;23;20100;-79
2021/01/12 10:33:47;;;;;;;8.68;5.60;;;6.70;99.90;;;;;;6153751;23;20059;-79
2021/01/12 10:36:18;;;;;;;9.55;5.53;;;6.20;99.90;;;;;;6153579;23;20317;-80
2021/01/12 10:38:44;;;;;;;7.30;5.28;;;5.90;99.90;;;;;;6127498;23;20029;-81
2021/01/12 10:41:10;;;;;;;8.55;5.47;;;5.30;99.90;;;;;;6153933;23;20009;-79
2021/01/12 10:43:37;;;;;;;7.72;5.72;;;5.50;99.90;;;;;;6152744;23;20041;-80
2021/01/12 10:46:04;;;;;;;8.70;6.35;;;5.70;99.90;;;;;;6127965;23;20394;-85
2021/01/12 10:48:29;;;;;;;9.25;6.35;;;5.90;99.90;;;;;;6127782;23;20006;-81
2021/01/12 10:51:06;;;;;;;15.25;9.57;;;6.00;99.90;;;;;;6153326;23;20072;-80
2021/01/12 10:53:46;;;;;;;10.82;7.10;;;6.50;99.90;;;;;;6153777;23;20002;-79
2021/01/12 10:57:09;;;;;;;7.78;5.65;;;6.70;99.90;;;;;;6153135;23;20013;-79
2021/01/12 10:59:34;;;;;;;8.10;5.93;;;6.00;99.90;;;;;;6151832;23;20025;-79
2021/01/12 11:02:03;;;;;;;7.13;5.75;;;5.80;99.90;;;;;;6153427;23;19994;-81
2021/01/12 11:04:29;;;;;;;12.93;7.65;;;5.70;99.90;;;;;;6153525;23;20001;-80
2021/01/12 11:06:57;;;;;;;20.88;8.23;;;5.90;99.90;;;;;;6153493;23;20051;-81
2021/01/12 11:09:23;;;;;;;10.98;7.00;;;6.20;99.90;;;;;;6153755;23;20006;-81
2021/01/12 11:11:49;;;;;;;12.48;7.40;;;6.30;99.90;;;;;;6153843;23;20340;-80
2021/01/12 11:14:18;;;;;;;12.77;7.70;;;6.40;99.90;;;;;;6152654;23;20064;-82
2021/01/12 11:20:18;;;;;;;12.43;7.80;;;6.60;99.90;;;;;;6134380;23;20002;-82
2021/01/12 11:22:46;;;;;;;15.05;9.07;;;6.50;99.90;;;;;;6152533;23;20009;-81
2021/01/12 11:25:12;;;;;;;35.42;9.65;;;6.60;99.90;;;;;;6151709;23;20024;-80
2021/01/12 11:27:39;;;;;;;89.10;45.60;;;6.80;99.90;;;;;;6151517;23;20487;-80
2021/01/12 11:30:07;;;;;;;28.67;16.77;;;7.60;99.90;;;;;;6153410;23;20044;-79
2021/01/12 11:32:34;;;;;;;28.25;16.77;;;7.10;99.90;;;;;;6153020;23;20006;-81
2021/01/12 11:35:01;;;;;;;31.05;17.80;;;7.90;99.90;;;;;;6153187;23;20010;-82
2021/01/12 11:37:29;;;;;;;21.35;11.63;;;8.10;99.90;;;;;;6153539;23;20006;-78
2021/01/12 11:39:56;;;;;;;17.27;10.93;;;8.40;99.90;;;;;;6153854;23;20017;-81
2021/01/12 11:42:21;;;;;;;19.05;10.80;;;7.50;99.90;;;;;;6153069;23;20029;-79
2021/01/12 11:44:48;;;;;;;7.57;6.18;;;7.20;99.90;;;;;;6155065;23;20359;-84
2021/01/12 11:47:14;;;;;;;6.55;5.80;;;5.90;99.90;;;;;;6153813;23;20005;-82
2021/01/12 11:49:39;;;;;;;9.30;6.43;;;5.80;99.90;;;;;;6154910;23;20317;-83
2021/01/12 11:52:06;;;;;;;8.48;6.45;;;5.70;99.90;;;;;;6154968;23;20434;-82
2021/01/12 11:54:33;;;;;;;7.07;5.93;;;5.80;99.90;;;;;;6153262;23;20092;-82
2021/01/12 11:57:13;;;;;;;7.40;5.75;;;5.80;99.90;;;;;;6155075;23;19998;-84
2021/01/12 11:59:45;;;;;;;9.07;6.53;;;5.40;99.90;;;;;;6153134;23;20009;-81
2021/01/12 12:02:10;;;;;;;10.88;6.05;;;5.50;99.90;;;;;;6155104;23;20226;-80
2021/01/12 12:04:54;;;;;;;9.95;5.85;;;5.60;99.90;;;;;;6154923;23;20153;-80
2021/01/12 12:07:20;;;;;;;7.55;5.65;;;5.50;99.90;;;;;;6153723;23;20336;-81
2021/01/12 12:09:45;;;;;;;11.52;5.68;;;5.40;99.90;;;;;;6154914;23;20470;-82
2021/01/12 12:12:12;;;;;;;8.70;6.97;;;5.60;99.90;;;;;;6152902;23;20009;-80
2021/01/12 12:14:38;;;;;;;10.38;7.00;;;5.60;99.90;;;;;;6153190;23;20018;-81
2021/01/12 12:17:04;;;;;;;9.82;7.38;;;5.70;99.90;;;;;;6154559;23;19997;-81
2021/01/12 12:19:30;;;;;;;8.73;6.40;;;5.90;99.90;;;;;;6153535;23;20028;-81
2021/01/12 12:21:57;;;;;;;8.77;6.80;;;5.50;99.90;;;;;;6153816;23;20009;-81
2021/01/12 12:24:26;;;;;;;8.65;6.05;;;5.50;99.90;;;;;;6153551;23;20010;-81
2021/01/12 12:26:52;;;;;;;13.40;8.10;;;5.40;99.90;;;;;;6147358;23;20014;-83
2021/01/12 12:29:19;;;;;;;11.63;7.75;;;5.70;99.90;;;;;;6150470;23;20415;-82
2021/01/12 12:31:53;;;;;;;11.02;7.32;;;5.90;99.90;;;;;;6153185;23;20005;-81
2021/01/12 12:34:41;;;;;;;11.73;7.65;;;5.60;99.90;;;;;;6152851;23;20025;-82
2021/01/12 12:37:09;;;;;;;20.08;7.38;;;5.40;99.90;;;;;;6153158;23;20128;-83
2021/01/12 12:39:38;;;;;;;10.85;6.95;;;5.50;99.90;;;;;;6152250;23;20025;-85
2021/01/12 12:42:05;;;;;;;9.98;7.25;;;5.50;99.90;;;;;;6152716;23;20012;-82
2021/01/12 12:44:37;;;;;;;10.13;7.00;;;5.60;99.90;;;;;;6152321;23;20033;-84
2021/01/12 12:47:05;;;;;;;9.73;7.10;;;5.50;99.90;;;;;;6154278;23;20048;-84
2021/01/12 12:49:31;;;;;;;13.07;6.93;;;5.70;99.90;;;;;;6153950;23;20013;-81
2021/01/12 12:52:06;;;;;;;11.88;7.30;;;5.50;99.90;;;;;;6154446;23;20005;-82
2021/01/12 12:54:35;;;;;;;19.92;11.02;;;5.60;99.90;;;;;;6153662;23;20017;-83